Brad Bennink — WDD4338 — position and weather

sailwx.info

Track history (hours):
 
Tides and Currents Weather Stations Pressure Air Temp Water Temp Dewpoint Dewpoint Depression Visibility Wind Speed Wind Dir Waves Ship Positions

Brad Bennink

Owner: American Commercial Lines LLC, Jeffersonville, IN. More information available from US FCC via Universal Licensing System and Coast Guard Vessel Documentation Center.

Last reported at 2015-Oct-30 19:32 UTC. Time now 2016-Apr-28 19:48 UTC.
Position N 38°56' W 084°52'.
Warning: this ship's position is months out of date.

Length 39 m; draft 2.9 m.

Type: Towing. MMSI: 367143450.

Date/timePositionNaut miles runAvg speedWind from/ knotsBaromVisibWave heightAir tempDewpointWater temp
2015-Oct-30 19:32N 38°56' W 084°52'10 4.6
2015-Oct-30 17:21N 39°06' W 084°50'4 5.4
2015-Oct-30 16:32N 39°08' W 084°46'5 4.5
2015-Oct-30 15:32N 39°06' W 084°41'0 0.0
2015-Oct-30 14:31N 39°06' W 084°41'0 0.0
2015-Oct-30 13:33N 39°06' W 084°41'0 0.0
2015-Oct-30 12:32N 39°06' W 084°41'3 3.2
2015-Oct-30 11:33N 39°04' W 084°37'5 5.3
2015-Oct-30 10:33N 39°06' W 084°31'4 3.7
2015-Oct-30 09:33N 39°05' W 084°26'5 5.1
2015-Oct-30 08:33N 39°02' W 084°21'5 5.0
2015-Oct-30 07:33N 38°58' W 084°18'6 6.0
2015-Oct-30 06:33N 38°52' W 084°14'5 5.0
2015-Oct-30 05:30N 38°48' W 084°11'2 2.0
2015-Oct-30 04:31N 38°47' W 084°08'  
2015-Oct-24 07:10N 38°24' W 082°34'38 1.7
2015-Oct-23 08:25N 38°38' W 083°20'22 4.3
2015-Oct-23 03:21N 38°42' W 083°47'4 4.3
2015-Oct-23 02:26N 38°44' W 083°51'4 4.3
2015-Oct-23 01:33N 38°46' W 083°55'7 4.6
2015-Oct-23 00:06N 38°46' W 084°04'3 5.1
2015-Oct-22 23:32N 38°47' W 084°07'4 2.2
2015-Oct-22 21:33N 38°48' W 084°13'4 3.4
2015-Oct-22 20:30N 38°52' W 084°14'1 1.0
2015-Oct-22 19:33N 38°53' W 084°14'5 5.0
2015-Oct-22 18:33N 38°57' W 084°17'5 4.9
2015-Oct-22 17:33N 39°02' W 084°20'5 5.0
2015-Oct-22 16:33N 39°03' W 084°26'4 4.4
2015-Oct-22 15:33N 39°07' W 084°29'5 4.6
2015-Oct-22 14:33N 39°05' W 084°34'4 4.1
2015-Oct-22 13:32N 39°06' W 084°39'3 2.9
2015-Oct-22 12:32N 39°07' W 084°42'4 3.4
2015-Oct-22 11:29N 39°07' W 084°47'  
Track history (hours):
 
Tides and Currents Weather Stations Pressure Air Temp Water Temp Dewpoint Dewpoint Depression Visibility Wind Speed Wind Dir Waves Ship Positions

Brad Bennink

Owner: American Commercial Lines LLC, Jeffersonville, IN. More information available from US FCC via Universal Licensing System and Coast Guard Vessel Documentation Center.

Last reported at 2015-Oct-30 19:32 UTC. Time now 2016-Apr-28 19:48 UTC.
Position N 38°56' W 084°52'.
Warning: this ship's position is months out of date.

Length 39 m; draft 2.9 m.

Type: Towing. MMSI: 367143450.

Date/timePositionNaut miles runAvg speedWind from/ knotsBaromVisibWave heightAir tempDewpointWater temp
2015-Oct-30 19:32N 38°56' W 084°52'10 4.6
2015-Oct-30 17:21N 39°06' W 084°50'4 5.4
2015-Oct-30 16:32N 39°08' W 084°46'5 4.5
2015-Oct-30 15:32N 39°06' W 084°41'0 0.0
2015-Oct-30 14:31N 39°06' W 084°41'0 0.0
2015-Oct-30 13:33N 39°06' W 084°41'0 0.0
2015-Oct-30 12:32N 39°06' W 084°41'3 3.2
2015-Oct-30 11:33N 39°04' W 084°37'5 5.3
2015-Oct-30 10:33N 39°06' W 084°31'4 3.7
2015-Oct-30 09:33N 39°05' W 084°26'5 5.1
2015-Oct-30 08:33N 39°02' W 084°21'5 5.0
2015-Oct-30 07:33N 38°58' W 084°18'6 6.0
2015-Oct-30 06:33N 38°52' W 084°14'5 5.0
2015-Oct-30 05:30N 38°48' W 084°11'2 2.0
2015-Oct-30 04:31N 38°47' W 084°08'  
2015-Oct-24 07:10N 38°24' W 082°34'38 1.7
2015-Oct-23 08:25N 38°38' W 083°20'22 4.3
2015-Oct-23 03:21N 38°42' W 083°47'4 4.3
2015-Oct-23 02:26N 38°44' W 083°51'4 4.3
2015-Oct-23 01:33N 38°46' W 083°55'7 4.6
2015-Oct-23 00:06N 38°46' W 084°04'3 5.1
2015-Oct-22 23:32N 38°47' W 084°07'4 2.2
2015-Oct-22 21:33N 38°48' W 084°13'4 3.4
2015-Oct-22 20:30N 38°52' W 084°14'1 1.0
2015-Oct-22 19:33N 38°53' W 084°14'5 5.0
2015-Oct-22 18:33N 38°57' W 084°17'5 4.9
2015-Oct-22 17:33N 39°02' W 084°20'5 5.0
2015-Oct-22 16:33N 39°03' W 084°26'4 4.4
2015-Oct-22 15:33N 39°07' W 084°29'5 4.6
2015-Oct-22 14:33N 39°05' W 084°34'4 4.1
2015-Oct-22 13:32N 39°06' W 084°39'3 2.9
2015-Oct-22 12:32N 39°07' W 084°42'4 3.4
2015-Oct-22 11:29N 39°07' W 084°47'  

Dump ship's entire track history